createdAt,value
2022-07-28T00:01:25.493Z,23.87
2022-07-28T00:03:52.247Z,23.88
2022-07-28T00:06:18.902Z,23.87
2022-07-28T00:08:45.661Z,23.86
2022-07-28T00:11:12.404Z,23.86
2022-07-28T00:13:39.171Z,23.86
2022-07-28T00:16:07.451Z,23.85
2022-07-28T00:18:34.163Z,23.85
2022-07-28T00:21:01.715Z,23.85
2022-07-28T00:23:38.436Z,23.83
2022-07-28T00:26:06.132Z,23.83
2022-07-28T00:28:32.794Z,23.83
2022-07-28T00:31:05.230Z,23.82
2022-07-28T00:33:35.485Z,23.80
2022-07-28T00:36:02.235Z,23.81
2022-07-28T00:38:28.964Z,23.80
2022-07-28T00:41:11.134Z,23.79
2022-07-28T00:43:45.404Z,23.79
2022-07-28T00:46:13.384Z,23.77
2022-07-28T00:48:41.350Z,23.79
2022-07-28T00:51:09.921Z,23.77
2022-07-28T00:53:39.409Z,23.79
2022-07-28T00:56:07.231Z,23.76
2022-07-28T00:58:35.540Z,23.76
2022-07-28T01:01:02.302Z,23.75
2022-07-28T01:03:29.451Z,23.76
2022-07-28T01:05:59.063Z,23.76
2022-07-28T01:08:50.385Z,23.72
2022-07-28T01:11:29.406Z,23.74
2022-07-28T01:14:04.109Z,23.72
2022-07-28T01:16:30.945Z,23.72
2022-07-28T01:19:16.305Z,23.70
2022-07-28T01:21:44.285Z,23.70
2022-07-28T01:24:26.933Z,23.71
2022-07-28T01:27:20.813Z,23.68
2022-07-28T01:29:51.085Z,23.68
2022-07-28T01:32:26.035Z,23.69
2022-07-28T01:34:58.128Z,23.68
2022-07-28T01:37:27.214Z,23.68
2022-07-28T01:39:57.943Z,23.67
2022-07-28T01:42:28.391Z,23.68
2022-07-28T01:44:56.436Z,23.68
2022-07-28T01:47:24.105Z,23.66
2022-07-28T01:49:51.219Z,23.65
2022-07-28T01:52:18.812Z,23.65
2022-07-28T01:54:46.851Z,23.65
2022-07-28T01:57:16.503Z,23.65
2022-07-28T01:59:44.123Z,23.64
2022-07-28T02:02:11.889Z,23.64
2022-07-28T02:04:40.833Z,23.63
2022-07-28T02:07:09.205Z,23.63
2022-07-28T02:09:36.816Z,23.62
2022-07-28T02:12:05.109Z,23.62
2022-07-28T02:14:33.056Z,23.61
2022-07-28T02:17:08.012Z,23.61
2022-07-28T02:19:36.191Z,23.60
2022-07-28T02:22:04.049Z,23.59
2022-07-28T02:24:32.127Z,23.60
2022-07-28T02:27:01.101Z,23.59
2022-07-28T02:29:49.894Z,23.59
2022-07-28T02:32:55.752Z,23.55
2022-07-28T02:35:42.639Z,23.55
2022-07-28T02:38:20.571Z,23.55
2022-07-28T02:40:49.018Z,23.56
2022-07-28T02:43:18.197Z,23.56
2022-07-28T02:45:47.394Z,23.55
2022-07-28T02:48:18.021Z,23.55
2022-07-28T02:50:45.810Z,23.54
2022-07-28T02:53:16.379Z,23.54
2022-07-28T02:55:47.399Z,23.54
2022-07-28T02:58:16.353Z,23.53
2022-07-28T03:00:43.624Z,23.54
2022-07-28T03:03:10.990Z,23.53
2022-07-28T03:05:37.968Z,23.53
2022-07-28T03:08:04.900Z,23.54
2022-07-28T03:10:33.413Z,23.52
2022-07-28T03:13:02.054Z,23.52
2022-07-28T03:15:28.877Z,23.52
2022-07-28T03:17:55.541Z,23.51
2022-07-28T03:20:22.255Z,23.50
2022-07-28T03:22:48.990Z,23.51
2022-07-28T03:25:29.039Z,23.50
2022-07-28T03:27:58.256Z,23.50
2022-07-28T03:30:38.923Z,23.47
2022-07-28T03:33:05.853Z,23.47
2022-07-28T03:35:33.434Z,23.47
2022-07-28T03:38:06.163Z,23.49
2022-07-28T03:40:33.317Z,23.49
2022-07-28T03:43:03.734Z,23.48
2022-07-28T03:45:32.662Z,23.48
2022-07-28T03:47:59.371Z,23.47
2022-07-28T03:50:31.026Z,23.47
2022-07-28T03:52:59.638Z,23.46
2022-07-28T03:55:26.863Z,23.46
2022-07-28T03:57:53.536Z,23.45
2022-07-28T04:00:21.695Z,23.45
2022-07-28T04:02:48.487Z,23.45
2022-07-28T04:05:17.114Z,23.45
2022-07-28T04:07:44.308Z,23.43
2022-07-28T04:10:13.035Z,23.40
2022-07-28T04:12:56.126Z,23.41
2022-07-28T04:15:24.190Z,23.40
2022-07-28T04:17:52.198Z,23.40
2022-07-28T04:20:20.718Z,23.40
2022-07-28T04:22:48.374Z,23.39
2022-07-28T04:25:16.742Z,23.38
2022-07-28T04:27:44.199Z,23.37
2022-07-28T04:30:19.129Z,23.37
2022-07-28T04:32:46.916Z,23.36
2022-07-28T04:35:17.543Z,23.35
2022-07-28T04:37:46.120Z,23.35
2022-07-28T04:40:13.852Z,23.35
2022-07-28T04:42:41.535Z,23.34
2022-07-28T04:45:09.925Z,23.34
2022-07-28T04:47:37.162Z,23.34
2022-07-28T04:50:05.720Z,23.33
2022-07-28T04:52:34.002Z,23.32
2022-07-28T04:55:01.094Z,23.31
2022-07-28T04:57:30.129Z,23.31
2022-07-28T04:59:58.313Z,23.32
2022-07-28T05:02:24.997Z,23.31
2022-07-28T05:04:51.772Z,23.30
2022-07-28T05:07:18.565Z,23.29
2022-07-28T05:09:45.356Z,23.29
2022-07-28T05:12:12.320Z,23.29
2022-07-28T05:14:39.370Z,23.25
2022-07-28T05:17:06.058Z,23.18
2022-07-28T05:19:32.730Z,23.18
2022-07-28T05:21:59.418Z,23.17
2022-07-28T05:24:26.219Z,23.18
2022-07-28T05:26:52.941Z,23.20
2022-07-28T05:29:19.626Z,23.19
2022-07-28T05:31:46.412Z,23.15
2022-07-28T05:34:13.391Z,23.21
2022-07-28T05:36:40.357Z,23.19
2022-07-28T05:39:07.013Z,23.22
2022-07-28T05:41:34.304Z,23.20
2022-07-28T05:44:01.728Z,23.19
2022-07-28T05:46:28.622Z,23.18
2022-07-28T05:48:55.453Z,23.19
2022-07-28T05:51:22.410Z,23.18
2022-07-28T05:53:49.229Z,23.15
2022-07-28T05:56:15.996Z,23.13
2022-07-28T05:58:42.959Z,23.13
2022-07-28T06:01:09.763Z,23.11
2022-07-28T06:03:41.859Z,23.09
2022-07-28T06:06:16.079Z,23.10
2022-07-28T06:08:43.929Z,23.09
2022-07-28T06:11:11.922Z,22.98
2022-07-28T06:13:49.621Z,22.85
2022-07-28T06:16:16.388Z,22.77
2022-07-28T06:18:44.148Z,22.69
2022-07-28T06:21:11.105Z,22.63
2022-07-28T06:23:38.237Z,22.51
2022-07-28T06:26:04.965Z,22.48
2022-07-28T06:28:33.036Z,22.45
2022-07-28T06:30:59.764Z,22.39
2022-07-28T06:33:26.529Z,22.40
2022-07-28T06:35:53.413Z,22.41
2022-07-28T06:38:22.711Z,22.45
2022-07-28T06:40:49.445Z,22.50
2022-07-28T06:43:16.128Z,22.54
2022-07-28T06:45:45.112Z,22.61
2022-07-28T06:48:13.866Z,22.65
2022-07-28T06:50:41.793Z,22.68
2022-07-28T06:53:08.788Z,22.71
2022-07-28T06:55:36.059Z,22.71
2022-07-28T06:58:03.853Z,22.73
2022-07-28T07:00:30.850Z,22.71
2022-07-28T07:02:57.690Z,22.71
2022-07-28T07:05:25.937Z,22.75
2022-07-28T07:07:52.631Z,22.72
2022-07-28T07:10:19.325Z,22.72
2022-07-28T07:12:46.088Z,22.72
2022-07-28T07:15:12.928Z,22.74
2022-07-28T07:17:39.746Z,22.77
2022-07-28T07:20:07.088Z,22.77
2022-07-28T07:22:33.763Z,22.81
2022-07-28T07:25:12.789Z,22.84
2022-07-28T07:27:39.655Z,22.87
2022-07-28T07:30:07.498Z,22.91
2022-07-28T07:32:34.454Z,22.92
2022-07-28T07:35:01.163Z,22.94
2022-07-28T07:37:27.892Z,22.96
2022-07-28T07:39:54.536Z,22.98
2022-07-28T07:42:21.224Z,23.01
2022-07-28T07:44:51.704Z,23.03
2022-07-28T07:47:19.208Z,23.06
2022-07-28T07:49:46.542Z,23.04
2022-07-28T07:52:14.552Z,23.07
2022-07-28T07:54:42.008Z,23.08
2022-07-28T07:57:09.042Z,23.08
2022-07-28T07:59:35.744Z,23.10
2022-07-28T08:02:02.655Z,23.12
2022-07-28T08:04:29.657Z,23.11
2022-07-28T08:06:56.561Z,23.15
2022-07-28T08:09:26.220Z,23.16
2022-07-28T08:11:53.052Z,23.19
2022-07-28T08:14:19.768Z,23.17
2022-07-28T08:16:46.405Z,23.20
2022-07-28T08:19:13.147Z,23.21
2022-07-28T08:21:40.744Z,23.25
2022-07-28T08:24:07.814Z,23.25
2022-07-28T08:26:34.497Z,23.27
2022-07-28T08:29:01.307Z,23.28
2022-07-28T08:31:28.105Z,23.30
2022-07-28T08:33:55.617Z,23.29
2022-07-28T08:36:22.779Z,23.29
2022-07-28T08:38:49.539Z,23.30
2022-07-28T08:41:55.086Z,23.27
2022-07-28T08:44:34.065Z,23.28
2022-07-28T08:47:03.842Z,23.29
2022-07-28T08:49:31.778Z,23.31
2022-07-28T08:52:01.182Z,23.31
2022-07-28T08:54:28.866Z,23.31
2022-07-28T08:56:56.068Z,23.29
2022-07-28T08:59:23.224Z,23.28
2022-07-28T09:01:54.039Z,23.29
2022-07-28T09:04:23.885Z,23.30
2022-07-28T09:06:50.753Z,23.32
2022-07-28T09:09:17.524Z,23.32
2022-07-28T09:11:44.214Z,23.32
2022-07-28T09:14:11.148Z,23.31
2022-07-28T09:16:38.327Z,23.31
2022-07-28T09:19:04.968Z,23.32
2022-07-28T09:21:31.813Z,23.33
2022-07-28T09:23:58.871Z,23.35
2022-07-28T09:26:25.573Z,23.35
2022-07-28T09:28:59.157Z,23.35
2022-07-28T09:31:28.471Z,23.36
2022-07-28T09:33:55.245Z,23.36
2022-07-28T09:36:22.486Z,23.39
2022-07-28T09:38:49.440Z,23.37
2022-07-28T09:41:19.127Z,23.35
2022-07-28T09:43:49.827Z,23.37
2022-07-28T09:46:22.783Z,23.38
2022-07-28T09:48:50.999Z,23.37
2022-07-28T09:51:19.334Z,23.37
2022-07-28T09:53:46.435Z,23.40
2022-07-28T09:56:13.418Z,23.41
2022-07-28T09:58:40.992Z,23.41
2022-07-28T10:01:12.943Z,23.40
2022-07-28T10:03:41.506Z,23.36
2022-07-28T10:06:09.635Z,23.37
2022-07-28T10:08:55.980Z,23.36
2022-07-28T10:11:24.814Z,23.35
2022-07-28T10:14:03.827Z,23.40
2022-07-28T10:16:35.441Z,23.40
2022-07-28T10:19:04.708Z,23.39
2022-07-28T10:21:34.000Z,23.40
2022-07-28T10:24:05.626Z,23.42
2022-07-28T10:26:34.387Z,23.43
2022-07-28T10:29:07.125Z,23.43
2022-07-28T10:31:36.442Z,23.45
2022-07-28T10:34:03.969Z,23.45
2022-07-28T10:36:31.835Z,23.47
2022-07-28T10:39:03.649Z,23.47
2022-07-28T10:41:34.737Z,23.49
2022-07-28T10:44:04.131Z,23.47
2022-07-28T10:46:31.810Z,23.49
2022-07-28T10:48:58.669Z,23.48
2022-07-28T10:51:30.891Z,23.51
2022-07-28T10:54:07.101Z,23.52
2022-07-28T10:56:33.746Z,23.48
2022-07-28T10:59:09.637Z,23.50
2022-07-28T11:01:54.153Z,23.54
2022-07-28T11:04:49.158Z,23.50
2022-07-28T11:07:17.238Z,23.53
2022-07-28T11:09:44.994Z,23.54
2022-07-28T11:12:17.914Z,23.56
2022-07-28T11:14:45.108Z,23.56
2022-07-28T11:17:16.131Z,23.58
2022-07-28T11:20:00.808Z,23.59
2022-07-28T11:22:34.192Z,23.57
2022-07-28T11:25:19.944Z,23.58
2022-07-28T11:27:50.035Z,23.45
2022-07-28T11:30:19.721Z,23.56
2022-07-28T11:32:53.581Z,23.59
2022-07-28T11:35:31.133Z,23.60
2022-07-28T11:38:00.793Z,23.60
2022-07-28T11:40:33.776Z,23.61
2022-07-28T11:43:36.444Z,23.61
2022-07-28T11:46:07.642Z,23.61
2022-07-28T11:48:40.826Z,23.62
2022-07-28T11:51:07.547Z,23.64
2022-07-28T11:53:48.857Z,23.65
2022-07-28T11:56:26.155Z,23.62
2022-07-28T11:59:04.634Z,23.63
2022-07-28T12:01:32.435Z,23.60
2022-07-28T12:04:12.000Z,23.64
2022-07-28T12:06:40.862Z,23.62
2022-07-28T12:09:09.637Z,23.62
2022-07-28T12:11:41.308Z,23.61
2022-07-28T12:14:10.361Z,23.61
2022-07-28T12:16:45.006Z,23.62
2022-07-28T12:19:15.074Z,23.64
2022-07-28T12:21:49.174Z,23.65
2022-07-28T12:24:44.659Z,23.62
2022-07-28T12:27:13.727Z,23.59
2022-07-28T12:29:42.361Z,23.58
2022-07-28T12:32:12.280Z,23.60
2022-07-28T12:34:40.822Z,23.61
2022-07-28T12:37:12.515Z,23.64
2022-07-28T12:39:42.511Z,23.64
2022-07-28T12:42:31.239Z,23.62
2022-07-28T12:45:01.510Z,23.65
2022-07-28T12:47:28.317Z,23.63
2022-07-28T12:50:20.035Z,23.63
2022-07-28T12:53:10.004Z,23.59
2022-07-28T12:55:38.282Z,23.64
2022-07-28T12:58:06.533Z,23.63
2022-07-28T13:00:35.395Z,23.66
2022-07-28T13:03:27.222Z,23.67
2022-07-28T13:06:04.754Z,23.69
2022-07-28T13:08:45.091Z,23.67
2022-07-28T13:11:41.882Z,23.68
2022-07-28T13:14:03.275Z,23.70
2022-07-28T13:16:30.202Z,23.70
2022-07-28T13:18:59.543Z,23.70
2022-07-28T13:21:38.862Z,23.70
2022-07-28T13:24:07.104Z,23.72
2022-07-28T13:26:35.718Z,23.75
2022-07-28T13:29:04.204Z,23.73
2022-07-28T13:31:40.192Z,23.73
2022-07-28T13:34:12.808Z,23.71
2022-07-28T13:36:39.933Z,23.73
2022-07-28T13:39:07.293Z,23.75
2022-07-28T13:41:48.511Z,23.73
2022-07-28T13:44:20.951Z,23.70
2022-07-28T13:46:50.051Z,23.73
2022-07-28T13:49:17.052Z,23.73
2022-07-28T13:51:44.003Z,23.73
2022-07-28T13:54:11.151Z,23.72
2022-07-28T13:56:37.943Z,23.70
2022-07-28T13:59:07.340Z,23.72
2022-07-28T14:01:36.392Z,23.74
2022-07-28T14:04:04.564Z,23.76
2022-07-28T14:06:31.535Z,23.73
2022-07-28T14:08:58.208Z,23.74
2022-07-28T14:11:24.944Z,23.76
2022-07-28T14:13:54.634Z,23.76
2022-07-28T14:16:22.153Z,23.77
2022-07-28T14:18:49.590Z,23.77
2022-07-28T14:21:16.519Z,23.77
2022-07-28T14:23:43.559Z,23.79
2022-07-28T14:26:34.620Z,23.77
2022-07-28T14:28:56.941Z,23.77
2022-07-28T14:31:23.720Z,23.75
2022-07-28T14:33:54.434Z,23.76
2022-07-28T14:36:21.993Z,23.77
2022-07-28T14:38:54.010Z,23.79
2022-07-28T14:41:21.428Z,23.80
2022-07-28T14:43:48.100Z,23.82
2022-07-28T14:46:21.442Z,23.81
2022-07-28T14:48:48.912Z,23.80
2022-07-28T14:51:15.701Z,23.81
2022-07-28T14:53:51.359Z,23.82
2022-07-28T14:56:19.104Z,23.82
2022-07-28T14:58:45.906Z,23.83
2022-07-28T15:01:12.638Z,23.83
2022-07-28T15:03:43.363Z,23.82
2022-07-28T15:06:10.757Z,23.83
2022-07-28T15:08:37.535Z,23.81
2022-07-28T15:11:04.228Z,23.83
2022-07-28T15:13:30.908Z,23.85
2022-07-28T15:16:00.092Z,23.85
2022-07-28T15:18:27.015Z,23.84
2022-07-28T15:20:56.259Z,23.84
2022-07-28T15:23:23.356Z,23.85
2022-07-28T15:25:50.686Z,23.84
2022-07-28T15:28:19.129Z,23.86
2022-07-28T15:30:54.032Z,23.87
2022-07-28T15:33:21.662Z,23.88
2022-07-28T15:35:59.047Z,23.90
2022-07-28T15:38:29.705Z,23.90
2022-07-28T15:40:58.993Z,23.91
2022-07-28T15:43:25.985Z,23.90
2022-07-28T15:45:55.270Z,23.89
2022-07-28T15:48:22.682Z,23.88
2022-07-28T15:50:49.530Z,23.88
2022-07-28T15:53:16.676Z,23.85
2022-07-28T15:55:47.670Z,23.86
2022-07-28T15:58:17.367Z,23.86
2022-07-28T16:00:44.677Z,23.90
2022-07-28T16:03:11.721Z,23.91
2022-07-28T16:05:38.502Z,23.91
2022-07-28T16:08:05.482Z,23.90
2022-07-28T16:10:32.387Z,23.89
2022-07-28T16:12:59.123Z,23.88
2022-07-28T16:15:27.152Z,23.85
2022-07-28T16:17:54.960Z,23.86
2022-07-28T16:20:22.151Z,23.87
2022-07-28T16:22:49.200Z,23.88
2022-07-28T16:25:20.699Z,23.84
2022-07-28T16:27:48.578Z,23.85
2022-07-28T16:30:16.386Z,23.88
2022-07-28T16:32:43.455Z,23.88
2022-07-28T16:35:10.711Z,23.88
2022-07-28T16:37:37.570Z,23.89
2022-07-28T16:40:04.664Z,23.91
2022-07-28T16:42:31.862Z,23.89
2022-07-28T16:44:58.972Z,23.87
2022-07-28T16:47:25.705Z,23.85
2022-07-28T16:49:52.478Z,23.85
2022-07-28T16:52:19.726Z,23.84
2022-07-28T16:54:47.689Z,23.85
2022-07-28T16:57:14.782Z,23.78
2022-07-28T16:59:48.807Z,23.73
2022-07-28T17:02:17.062Z,23.72
2022-07-28T17:04:43.841Z,23.72
2022-07-28T17:07:10.669Z,23.70
2022-07-28T17:09:37.485Z,23.69
2022-07-28T17:12:04.598Z,23.69
2022-07-28T17:14:31.356Z,23.68
2022-07-28T17:16:58.013Z,23.68
2022-07-28T17:19:24.777Z,23.70
2022-07-28T17:21:51.469Z,23.67
2022-07-28T17:24:18.768Z,23.67
2022-07-28T17:29:34.881Z,23.67
2022-07-28T17:32:01.719Z,23.67
2022-07-28T17:34:28.972Z,23.67
2022-07-28T17:36:55.678Z,23.68
2022-07-28T17:39:22.488Z,23.65
2022-07-28T17:41:49.206Z,23.67
2022-07-28T17:44:16.188Z,23.68
2022-07-28T17:46:43.210Z,23.70
2022-07-28T17:49:10.085Z,23.73
2022-07-28T17:51:37.756Z,23.78
2022-07-28T17:54:04.653Z,23.81
2022-07-28T17:56:32.785Z,23.85
2022-07-28T17:59:01.075Z,23.89
2022-07-28T18:01:29.002Z,23.88
2022-07-28T18:03:58.904Z,23.88
2022-07-28T18:06:32.753Z,23.89
2022-07-28T18:09:03.801Z,23.88
2022-07-28T18:11:33.488Z,23.87
2022-07-28T18:14:03.879Z,23.86
2022-07-28T18:16:31.508Z,23.85
2022-07-28T18:18:58.289Z,23.85
2022-07-28T18:21:26.748Z,23.84
2022-07-28T18:23:54.920Z,23.83
2022-07-28T18:26:22.166Z,23.82
2022-07-28T18:28:49.211Z,23.80
2022-07-28T18:31:16.018Z,23.79
2022-07-28T18:33:42.804Z,23.79
2022-07-28T18:36:09.506Z,23.80
2022-07-28T18:38:36.202Z,23.79
2022-07-28T18:41:02.889Z,23.79
2022-07-28T18:43:29.582Z,23.75
2022-07-28T18:45:56.326Z,23.72
2022-07-28T18:48:25.677Z,23.70
2022-07-28T18:50:52.594Z,23.73
2022-07-28T18:53:19.475Z,23.76
2022-07-28T18:55:46.182Z,23.78
2022-07-28T18:58:12.988Z,23.81
2022-07-28T19:00:39.697Z,23.81
2022-07-28T19:03:06.584Z,23.81
2022-07-28T19:05:36.753Z,23.80
2022-07-28T19:08:04.698Z,23.78
2022-07-28T19:10:32.419Z,23.76
2022-07-28T19:12:59.627Z,23.75
2022-07-28T19:15:26.565Z,23.70
2022-07-28T19:18:10.346Z,23.67
2022-07-28T19:20:41.442Z,23.66
2022-07-28T19:23:08.111Z,23.69
2022-07-28T19:25:36.545Z,23.73
2022-07-28T19:28:04.184Z,23.75
2022-07-28T19:30:32.542Z,23.77
2022-07-28T19:32:59.456Z,23.78
2022-07-28T19:35:26.338Z,23.76
2022-07-28T19:37:53.080Z,23.76
2022-07-28T19:40:20.025Z,23.78
2022-07-28T19:42:48.643Z,23.79
2022-07-28T19:45:15.483Z,23.78
2022-07-28T19:47:42.830Z,23.79
2022-07-28T19:50:09.747Z,23.79
2022-07-28T19:52:36.564Z,23.81
2022-07-28T19:55:05.449Z,23.81
2022-07-28T19:57:33.124Z,23.84
2022-07-28T19:59:59.944Z,23.84
2022-07-28T20:02:26.730Z,23.85
2022-07-28T20:04:54.289Z,23.86
2022-07-28T20:07:20.995Z,23.87
2022-07-28T20:09:47.768Z,23.88
2022-07-28T20:12:16.695Z,23.89
2022-07-28T20:14:44.187Z,23.88
2022-07-28T20:17:20.109Z,23.89
2022-07-28T20:19:57.538Z,23.88
2022-07-28T20:22:25.238Z,23.90
2022-07-28T20:24:51.955Z,23.91
2022-07-28T20:27:18.633Z,23.90
2022-07-28T20:29:45.425Z,23.91
2022-07-28T20:32:12.202Z,23.92
2022-07-28T20:34:38.931Z,23.92
2022-07-28T20:37:06.402Z,23.92
2022-07-28T20:39:53.080Z,23.92
2022-07-28T20:42:19.749Z,23.92
2022-07-28T20:44:46.458Z,23.94
2022-07-28T20:47:13.227Z,23.93
2022-07-28T20:49:40.123Z,23.94
2022-07-28T20:52:06.987Z,23.93
2022-07-28T20:54:33.663Z,23.95
2022-07-28T20:57:00.469Z,23.95
2022-07-28T20:59:28.171Z,23.95
2022-07-28T21:01:55.461Z,23.96
2022-07-28T21:04:24.668Z,23.95
2022-07-28T21:06:52.225Z,23.95
2022-07-28T21:09:21.021Z,23.96
2022-07-28T21:11:47.680Z,23.95
2022-07-28T21:14:14.623Z,23.96
2022-07-28T21:16:41.538Z,23.96
2022-07-28T21:19:08.904Z,23.96
2022-07-28T21:21:35.688Z,23.96
2022-07-28T21:24:02.409Z,23.97
2022-07-28T21:26:29.120Z,23.97
2022-07-28T21:32:02.374Z,23.97
2022-07-28T21:34:30.243Z,23.97
2022-07-28T21:36:57.363Z,23.97
2022-07-28T21:39:24.030Z,23.98
2022-07-28T21:41:50.752Z,23.97
2022-07-28T21:44:18.029Z,23.96
2022-07-28T21:46:45.891Z,23.98
2022-07-28T21:49:12.897Z,23.98
2022-07-28T21:51:40.085Z,23.97
2022-07-28T21:54:07.028Z,23.99
2022-07-28T21:56:34.949Z,23.98
2022-07-28T21:59:02.266Z,23.99
2022-07-28T22:01:29.450Z,23.98
2022-07-28T22:03:56.988Z,23.99
2022-07-28T22:06:23.938Z,23.99
2022-07-28T22:08:53.884Z,23.98
2022-07-28T22:11:23.644Z,23.99
2022-07-28T22:13:50.402Z,23.98
2022-07-28T22:16:17.910Z,23.99
2022-07-28T22:18:44.699Z,23.98
2022-07-28T22:21:11.506Z,23.98
2022-07-28T22:23:38.252Z,23.99
2022-07-28T22:26:04.928Z,23.98
2022-07-28T22:28:31.655Z,23.99
2022-07-28T22:31:08.654Z,23.99
2022-07-28T22:33:36.498Z,23.97
2022-07-28T22:36:04.473Z,24.00
2022-07-28T22:38:31.307Z,23.99
2022-07-28T22:40:58.806Z,24.01
2022-07-28T22:43:25.512Z,24.01
2022-07-28T22:45:52.424Z,23.98
2022-07-28T22:48:19.296Z,23.98
2022-07-28T22:50:46.004Z,24.00
2022-07-28T22:53:12.739Z,23.99
2022-07-28T22:58:21.108Z,23.99
2022-07-28T23:00:49.154Z,23.99
2022-07-28T23:03:18.163Z,23.98
2022-07-28T23:05:45.725Z,23.98
2022-07-28T23:08:13.067Z,23.98
2022-07-28T23:10:40.077Z,23.99
2022-07-28T23:13:07.178Z,23.99
2022-07-28T23:15:40.748Z,23.99
2022-07-28T23:18:10.773Z,23.98
2022-07-28T23:20:38.744Z,24.00
2022-07-28T23:23:05.688Z,23.99
2022-07-28T23:25:32.629Z,23.97
2022-07-28T23:27:59.430Z,23.98
2022-07-28T23:30:26.164Z,23.97
2022-07-28T23:32:53.278Z,23.98
2022-07-28T23:35:20.123Z,23.99
2022-07-28T23:37:46.972Z,23.97
2022-07-28T23:40:13.962Z,23.98
2022-07-28T23:42:40.747Z,23.97
2022-07-28T23:45:07.963Z,23.99
2022-07-28T23:47:34.736Z,23.97
2022-07-28T23:50:02.453Z,23.98
2022-07-28T23:52:29.343Z,23.97
2022-07-28T23:54:56.389Z,23.99
2022-07-28T23:57:23.174Z,23.97
2022-07-28T23:59:50.046Z,23.97
